sensor_id;sensor_type;location;lat;lon;timestamp;P1;durP1;ratioP1;P2;durP2;ratioP2
22441;SDS011;11388;54.456;9.752;2022-07-29T00:01:05;2.88;;;1.00;;
22441;SDS011;11388;54.456;9.752;2022-07-29T00:03:31;2.40;;;1.00;;
22441;SDS011;11388;54.456;9.752;2022-07-29T00:05:57;4.07;;;1.20;;
22441;SDS011;11388;54.456;9.752;2022-07-29T00:08:23;2.00;;;1.10;;
22441;SDS011;11388;54.456;9.752;2022-07-29T00:10:49;3.58;;;1.00;;
22441;SDS011;11388;54.456;9.752;2022-07-29T00:13:15;3.95;;;1.10;;
22441;SDS011;11388;54.456;9.752;2022-07-29T00:15:40;2.72;;;1.17;;
22441;SDS011;11388;54.456;9.752;2022-07-29T00:18:06;2.65;;;1.23;;
22441;SDS011;11388;54.456;9.752;2022-07-29T00:20:32;1.33;;;1.00;;
22441;SDS011;11388;54.456;9.752;2022-07-29T00:22:58;2.50;;;1.05;;
22441;SDS011;11388;54.456;9.752;2022-07-29T00:25:23;3.20;;;1.30;;
22441;SDS011;11388;54.456;9.752;2022-07-29T00:27:49;2.45;;;1.20;;
22441;SDS011;11388;54.456;9.752;2022-07-29T00:30:15;4.05;;;1.27;;
22441;SDS011;11388;54.456;9.752;2022-07-29T00:32:41;2.58;;;1.15;;
22441;SDS011;11388;54.456;9.752;2022-07-29T00:35:07;3.03;;;1.30;;
22441;SDS011;11388;54.456;9.752;2022-07-29T00:37:51;2.50;;;1.13;;
22441;SDS011;11388;54.456;9.752;2022-07-29T00:40:17;2.50;;;1.02;;
22441;SDS011;11388;54.456;9.752;2022-07-29T00:42:44;2.75;;;1.33;;
22441;SDS011;11388;54.456;9.752;2022-07-29T00:45:11;2.08;;;0.95;;
22441;SDS011;11388;54.456;9.752;2022-07-29T00:47:38;3.22;;;1.40;;
22441;SDS011;11388;54.456;9.752;2022-07-29T00:50:04;2.55;;;1.20;;
22441;SDS011;11388;54.456;9.752;2022-07-29T00:52:31;3.20;;;1.30;;
22441;SDS011;11388;54.456;9.752;2022-07-29T00:54:58;3.05;;;1.15;;
22441;SDS011;11388;54.456;9.752;2022-07-29T00:57:24;3.72;;;1.10;;
22441;SDS011;11388;54.456;9.752;2022-07-29T00:59:50;4.55;;;1.33;;
22441;SDS011;11388;54.456;9.752;2022-07-29T01:02:15;1.60;;;1.02;;
22441;SDS011;11388;54.456;9.752;2022-07-29T01:04:41;2.40;;;1.17;;
22441;SDS011;11388;54.456;9.752;2022-07-29T01:07:07;1.92;;;1.10;;
22441;SDS011;11388;54.456;9.752;2022-07-29T01:09:33;2.58;;;1.30;;
22441;SDS011;11388;54.456;9.752;2022-07-29T01:14:59;2.50;;;1.35;;
22441;SDS011;11388;54.456;9.752;2022-07-29T01:23:24;2.10;;;1.30;;
22441;SDS011;11388;54.456;9.752;2022-07-29T01:26:21;4.28;;;1.30;;
22441;SDS011;11388;54.456;9.752;2022-07-29T01:29:12;2.72;;;1.30;;
22441;SDS011;11388;54.456;9.752;2022-07-29T01:32:01;2.42;;;1.23;;
22441;SDS011;11388;54.456;9.752;2022-07-29T01:34:34;3.58;;;1.23;;
22441;SDS011;11388;54.456;9.752;2022-07-29T01:39:52;2.35;;;1.30;;
22441;SDS011;11388;54.456;9.752;2022-07-29T01:42:26;3.30;;;1.20;;
22441;SDS011;11388;54.456;9.752;2022-07-29T01:50:56;2.58;;;1.10;;
22441;SDS011;11388;54.456;9.752;2022-07-29T01:53:29;1.92;;;1.13;;
22441;SDS011;11388;54.456;9.752;2022-07-29T01:56:01;1.92;;;1.20;;
22441;SDS011;11388;54.456;9.752;2022-07-29T01:58:28;2.70;;;1.20;;
22441;SDS011;11388;54.456;9.752;2022-07-29T02:00:56;1.90;;;1.10;;
22441;SDS011;11388;54.456;9.752;2022-07-29T02:03:24;4.07;;;1.10;;
22441;SDS011;11388;54.456;9.752;2022-07-29T02:05:52;1.80;;;1.10;;
22441;SDS011;11388;54.456;9.752;2022-07-29T02:08:21;1.85;;;1.30;;
22441;SDS011;11388;54.456;9.752;2022-07-29T02:10:48;2.17;;;1.33;;
22441;SDS011;11388;54.456;9.752;2022-07-29T02:13:15;2.42;;;1.20;;
22441;SDS011;11388;54.456;9.752;2022-07-29T02:15:43;2.10;;;1.05;;
22441;SDS011;11388;54.456;9.752;2022-07-29T02:18:14;2.35;;;1.40;;
22441;SDS011;11388;54.456;9.752;2022-07-29T02:20:47;1.73;;;1.23;;
22441;SDS011;11388;54.456;9.752;2022-07-29T02:23:15;2.53;;;1.30;;
22441;SDS011;11388;54.456;9.752;2022-07-29T02:25:46;1.70;;;1.17;;
22441;SDS011;11388;54.456;9.752;2022-07-29T02:28:14;2.38;;;1.10;;
22441;SDS011;11388;54.456;9.752;2022-07-29T02:30:42;2.38;;;1.15;;
22441;SDS011;11388;54.456;9.752;2022-07-29T02:33:09;2.53;;;1.25;;
22441;SDS011;11388;54.456;9.752;2022-07-29T02:35:38;1.73;;;1.13;;
22441;SDS011;11388;54.456;9.752;2022-07-29T02:38:06;2.10;;;1.20;;
22441;SDS011;11388;54.456;9.752;2022-07-29T02:40:52;3.05;;;1.40;;
22441;SDS011;11388;54.456;9.752;2022-07-29T02:43:20;2.35;;;1.30;;
22441;SDS011;11388;54.456;9.752;2022-07-29T02:45:47;1.40;;;1.00;;
22441;SDS011;11388;54.456;9.752;2022-07-29T02:48:16;2.72;;;1.17;;
22441;SDS011;11388;54.456;9.752;2022-07-29T02:50:48;2.13;;;1.20;;
22441;SDS011;11388;54.456;9.752;2022-07-29T02:53:19;2.53;;;1.20;;
22441;SDS011;11388;54.456;9.752;2022-07-29T02:55:57;2.50;;;1.23;;
22441;SDS011;11388;54.456;9.752;2022-07-29T02:58:42;2.67;;;1.30;;
22441;SDS011;11388;54.456;9.752;2022-07-29T03:01:15;1.75;;;1.13;;
22441;SDS011;11388;54.456;9.752;2022-07-29T03:03:45;2.72;;;1.20;;
22441;SDS011;11388;54.456;9.752;2022-07-29T03:06:13;2.55;;;1.10;;
22441;SDS011;11388;54.456;9.752;2022-07-29T03:08:40;2.70;;;1.30;;
22441;SDS011;11388;54.456;9.752;2022-07-29T03:11:07;3.03;;;1.40;;
22441;SDS011;11388;54.456;9.752;2022-07-29T03:13:34;2.78;;;1.30;;
22441;SDS011;11388;54.456;9.752;2022-07-29T03:16:01;2.35;;;1.40;;
22441;SDS011;11388;54.456;9.752;2022-07-29T03:18:27;2.10;;;1.13;;
22441;SDS011;11388;54.456;9.752;2022-07-29T03:20:53;1.83;;;1.20;;
22441;SDS011;11388;54.456;9.752;2022-07-29T03:23:20;3.25;;;1.40;;
22441;SDS011;11388;54.456;9.752;2022-07-29T03:25:48;1.83;;;1.02;;
22441;SDS011;11388;54.456;9.752;2022-07-29T03:28:14;2.22;;;1.30;;
22441;SDS011;11388;54.456;9.752;2022-07-29T03:30:40;2.65;;;1.30;;
22441;SDS011;11388;54.456;9.752;2022-07-29T03:33:06;2.92;;;1.30;;
22441;SDS011;11388;54.456;9.752;2022-07-29T03:35:31;2.63;;;1.55;;
22441;SDS011;11388;54.456;9.752;2022-07-29T03:37:57;2.47;;;1.10;;
22441;SDS011;11388;54.456;9.752;2022-07-29T03:41:10;3.13;;;1.60;;
22441;SDS011;11388;54.456;9.752;2022-07-29T03:43:13;5.15;;;1.33;;
22441;SDS011;11388;54.456;9.752;2022-07-29T03:45:42;1.58;;;1.20;;
22441;SDS011;11388;54.456;9.752;2022-07-29T03:48:12;2.17;;;1.20;;
22441;SDS011;11388;54.456;9.752;2022-07-29T03:50:40;2.15;;;1.20;;
22441;SDS011;11388;54.456;9.752;2022-07-29T03:53:06;2.40;;;1.45;;
22441;SDS011;11388;54.456;9.752;2022-07-29T03:55:36;2.88;;;1.50;;
22441;SDS011;11388;54.456;9.752;2022-07-29T03:58:06;3.63;;;1.50;;
22441;SDS011;11388;54.456;9.752;2022-07-29T04:00:33;2.78;;;1.30;;
22441;SDS011;11388;54.456;9.752;2022-07-29T04:03:01;2.15;;;1.20;;
22441;SDS011;11388;54.456;9.752;2022-07-29T04:05:28;1.63;;;1.10;;
22441;SDS011;11388;54.456;9.752;2022-07-29T04:07:54;2.13;;;1.00;;
22441;SDS011;11388;54.456;9.752;2022-07-29T04:10:20;3.05;;;1.10;;
22441;SDS011;11388;54.456;9.752;2022-07-29T04:12:45;1.30;;;0.98;;
22441;SDS011;11388;54.456;9.752;2022-07-29T04:15:11;3.13;;;1.00;;
22441;SDS011;11388;54.456;9.752;2022-07-29T04:17:37;1.50;;;1.17;;
22441;SDS011;11388;54.456;9.752;2022-07-29T04:20:03;2.45;;;1.10;;
22441;SDS011;11388;54.456;9.752;2022-07-29T04:22:29;2.40;;;1.10;;
22441;SDS011;11388;54.456;9.752;2022-07-29T04:24:55;2.17;;;1.30;;
22441;SDS011;11388;54.456;9.752;2022-07-29T04:27:21;2.35;;;1.13;;
22441;SDS011;11388;54.456;9.752;2022-07-29T04:29:47;2.03;;;1.20;;
22441;SDS011;11388;54.456;9.752;2022-07-29T04:32:13;1.63;;;1.02;;
22441;SDS011;11388;54.456;9.752;2022-07-29T04:34:38;2.50;;;1.38;;
22441;SDS011;11388;54.456;9.752;2022-07-29T04:37:04;2.35;;;1.42;;
22441;SDS011;11388;54.456;9.752;2022-07-29T04:39:30;1.65;;;1.10;;
22441;SDS011;11388;54.456;9.752;2022-07-29T04:41:55;2.47;;;1.35;;
22441;SDS011;11388;54.456;9.752;2022-07-29T04:44:21;3.60;;;1.50;;
22441;SDS011;11388;54.456;9.752;2022-07-29T04:46:47;3.63;;;1.60;;
22441;SDS011;11388;54.456;9.752;2022-07-29T04:49:12;4.22;;;1.60;;
22441;SDS011;11388;54.456;9.752;2022-07-29T04:51:38;2.28;;;1.50;;
22441;SDS011;11388;54.456;9.752;2022-07-29T04:54:04;2.17;;;1.23;;
22441;SDS011;11388;54.456;9.752;2022-07-29T04:56:30;2.78;;;1.60;;
22441;SDS011;11388;54.456;9.752;2022-07-29T04:58:55;3.45;;;1.45;;
22441;SDS011;11388;54.456;9.752;2022-07-29T05:01:21;3.47;;;1.90;;
22441;SDS011;11388;54.456;9.752;2022-07-29T05:03:47;2.97;;;1.80;;
22441;SDS011;11388;54.456;9.752;2022-07-29T05:06:13;4.43;;;1.88;;
22441;SDS011;11388;54.456;9.752;2022-07-29T05:08:39;4.13;;;1.90;;
22441;SDS011;11388;54.456;9.752;2022-07-29T05:11:05;3.42;;;2.10;;
22441;SDS011;11388;54.456;9.752;2022-07-29T05:13:31;3.28;;;1.80;;
22441;SDS011;11388;54.456;9.752;2022-07-29T05:15:56;4.53;;;2.00;;
22441;SDS011;11388;54.456;9.752;2022-07-29T05:18:25;2.92;;;1.88;;
22441;SDS011;11388;54.456;9.752;2022-07-29T05:20:51;3.17;;;1.80;;
22441;SDS011;11388;54.456;9.752;2022-07-29T05:23:17;2.70;;;1.70;;
22441;SDS011;11388;54.456;9.752;2022-07-29T05:25:42;2.42;;;1.60;;
22441;SDS011;11388;54.456;9.752;2022-07-29T05:28:08;3.58;;;2.00;;
22441;SDS011;11388;54.456;9.752;2022-07-29T05:30:34;3.45;;;1.80;;
22441;SDS011;11388;54.456;9.752;2022-07-29T05:33:00;3.33;;;1.90;;
22441;SDS011;11388;54.456;9.752;2022-07-29T05:35:26;3.60;;;1.95;;
22441;SDS011;11388;54.456;9.752;2022-07-29T05:37:51;3.75;;;1.88;;
22441;SDS011;11388;54.456;9.752;2022-07-29T05:40:17;2.97;;;1.70;;
22441;SDS011;11388;54.456;9.752;2022-07-29T05:42:43;3.47;;;1.73;;
22441;SDS011;11388;54.456;9.752;2022-07-29T05:45:09;3.08;;;1.73;;
22441;SDS011;11388;54.456;9.752;2022-07-29T05:47:35;4.93;;;1.48;;
22441;SDS011;11388;54.456;9.752;2022-07-29T05:50:00;3.85;;;1.77;;
22441;SDS011;11388;54.456;9.752;2022-07-29T05:52:34;5.45;;;1.90;;
22441;SDS011;11388;54.456;9.752;2022-07-29T05:55:00;4.72;;;1.98;;
22441;SDS011;11388;54.456;9.752;2022-07-29T05:57:29;4.88;;;2.08;;
22441;SDS011;11388;54.456;9.752;2022-07-29T05:59:54;2.83;;;1.95;;
22441;SDS011;11388;54.456;9.752;2022-07-29T06:02:27;6.05;;;1.88;;
22441;SDS011;11388;54.456;9.752;2022-07-29T06:08:15;3.55;;;1.60;;
22441;SDS011;11388;54.456;9.752;2022-07-29T06:10:42;3.90;;;1.80;;
22441;SDS011;11388;54.456;9.752;2022-07-29T06:13:08;4.00;;;1.83;;
22441;SDS011;11388;54.456;9.752;2022-07-29T06:15:34;3.33;;;1.65;;
22441;SDS011;11388;54.456;9.752;2022-07-29T06:17:59;3.53;;;1.58;;
22441;SDS011;11388;54.456;9.752;2022-07-29T06:20:25;4.00;;;1.70;;
22441;SDS011;11388;54.456;9.752;2022-07-29T06:22:54;3.20;;;1.50;;
22441;SDS011;11388;54.456;9.752;2022-07-29T06:25:20;4.55;;;1.73;;
22441;SDS011;11388;54.456;9.752;2022-07-29T06:27:46;5.28;;;1.40;;
22441;SDS011;11388;54.456;9.752;2022-07-29T06:30:11;5.50;;;1.60;;
22441;SDS011;11388;54.456;9.752;2022-07-29T06:32:37;10.65;;;1.73;;
22441;SDS011;11388;54.456;9.752;2022-07-29T06:35:03;5.63;;;1.70;;
22441;SDS011;11388;54.456;9.752;2022-07-29T06:37:29;6.30;;;1.80;;
22441;SDS011;11388;54.456;9.752;2022-07-29T06:39:55;6.95;;;1.83;;
22441;SDS011;11388;54.456;9.752;2022-07-29T06:42:43;6.25;;;1.70;;
22441;SDS011;11388;54.456;9.752;2022-07-29T06:45:09;5.45;;;1.80;;
22441;SDS011;11388;54.456;9.752;2022-07-29T06:47:36;3.55;;;1.55;;
22441;SDS011;11388;54.456;9.752;2022-07-29T06:50:02;4.57;;;1.60;;
22441;SDS011;11388;54.456;9.752;2022-07-29T06:52:28;3.75;;;1.40;;
22441;SDS011;11388;54.456;9.752;2022-07-29T06:54:54;4.30;;;1.50;;
22441;SDS011;11388;54.456;9.752;2022-07-29T06:57:20;3.63;;;1.50;;
22441;SDS011;11388;54.456;9.752;2022-07-29T06:59:46;5.50;;;1.83;;
22441;SDS011;11388;54.456;9.752;2022-07-29T07:02:14;7.00;;;1.63;;
22441;SDS011;11388;54.456;9.752;2022-07-29T07:04:39;4.45;;;1.67;;
22441;SDS011;11388;54.456;9.752;2022-07-29T07:07:05;5.55;;;1.63;;
22441;SDS011;11388;54.456;9.752;2022-07-29T07:09:31;5.82;;;1.70;;
22441;SDS011;11388;54.456;9.752;2022-07-29T07:11:57;5.57;;;1.75;;
22441;SDS011;11388;54.456;9.752;2022-07-29T07:14:23;4.72;;;1.60;;
22441;SDS011;11388;54.456;9.752;2022-07-29T07:16:48;3.85;;;1.42;;
22441;SDS011;11388;54.456;9.752;2022-07-29T07:19:14;6.47;;;1.60;;
22441;SDS011;11388;54.456;9.752;2022-07-29T07:21:40;3.58;;;1.40;;
22441;SDS011;11388;54.456;9.752;2022-07-29T07:24:05;4.55;;;1.50;;
22441;SDS011;11388;54.456;9.752;2022-07-29T07:26:31;6.32;;;2.10;;
22441;SDS011;11388;54.456;9.752;2022-07-29T07:28:57;5.57;;;1.50;;
22441;SDS011;11388;54.456;9.752;2022-07-29T07:31:23;5.32;;;1.48;;
22441;SDS011;11388;54.456;9.752;2022-07-29T07:33:49;4.32;;;1.30;;
22441;SDS011;11388;54.456;9.752;2022-07-29T07:36:20;6.10;;;1.60;;
22441;SDS011;11388;54.456;9.752;2022-07-29T07:38:55;7.10;;;1.50;;
22441;SDS011;11388;54.456;9.752;2022-07-29T07:41:21;3.85;;;1.30;;
22441;SDS011;11388;54.456;9.752;2022-07-29T07:43:47;4.95;;;1.52;;
22441;SDS011;11388;54.456;9.752;2022-07-29T07:46:13;3.95;;;1.20;;
22441;SDS011;11388;54.456;9.752;2022-07-29T07:48:40;6.22;;;1.50;;
22441;SDS011;11388;54.456;9.752;2022-07-29T07:51:05;4.45;;;1.40;;
22441;SDS011;11388;54.456;9.752;2022-07-29T07:53:32;4.05;;;1.30;;
22441;SDS011;11388;54.456;9.752;2022-07-29T07:55:58;3.80;;;1.20;;
22441;SDS011;11388;54.456;9.752;2022-07-29T07:58:25;5.30;;;1.38;;
22441;SDS011;11388;54.456;9.752;2022-07-29T08:00:53;6.10;;;1.50;;
22441;SDS011;11388;54.456;9.752;2022-07-29T08:03:34;4.05;;;1.52;;
22441;SDS011;11388;54.456;9.752;2022-07-29T08:06:00;3.42;;;1.50;;
22441;SDS011;11388;54.456;9.752;2022-07-29T08:08:26;4.32;;;1.45;;
22441;SDS011;11388;54.456;9.752;2022-07-29T08:10:52;3.70;;;1.30;;
22441;SDS011;11388;54.456;9.752;2022-07-29T08:13:18;4.35;;;1.50;;
22441;SDS011;11388;54.456;9.752;2022-07-29T08:15:45;3.58;;;1.35;;
22441;SDS011;11388;54.456;9.752;2022-07-29T08:18:11;4.45;;;1.40;;
22441;SDS011;11388;54.456;9.752;2022-07-29T08:20:38;4.45;;;1.33;;
22441;SDS011;11388;54.456;9.752;2022-07-29T08:23:04;3.50;;;1.33;;
22441;SDS011;11388;54.456;9.752;2022-07-29T08:25:33;3.58;;;1.38;;
22441;SDS011;11388;54.456;9.752;2022-07-29T08:28:01;3.88;;;1.40;;
22441;SDS011;11388;54.456;9.752;2022-07-29T08:30:27;6.95;;;1.60;;
22441;SDS011;11388;54.456;9.752;2022-07-29T08:32:53;5.43;;;1.48;;
22441;SDS011;11388;54.456;9.752;2022-07-29T08:35:22;5.10;;;1.42;;
22441;SDS011;11388;54.456;9.752;2022-07-29T08:37:49;5.13;;;1.30;;
22441;SDS011;11388;54.456;9.752;2022-07-29T08:40:16;5.45;;;1.50;;
22441;SDS011;11388;54.456;9.752;2022-07-29T08:42:42;5.50;;;2.17;;
22441;SDS011;11388;54.456;9.752;2022-07-29T08:45:08;5.68;;;1.60;;
22441;SDS011;11388;54.456;9.752;2022-07-29T08:47:39;5.72;;;1.55;;
22441;SDS011;11388;54.456;9.752;2022-07-29T08:50:08;4.72;;;1.42;;
22441;SDS011;11388;54.456;9.752;2022-07-29T08:55:56;4.95;;;1.50;;
22441;SDS011;11388;54.456;9.752;2022-07-29T08:58:28;5.78;;;1.35;;
22441;SDS011;11388;54.456;9.752;2022-07-29T09:01:01;4.45;;;1.45;;
22441;SDS011;11388;54.456;9.752;2022-07-29T09:03:31;3.63;;;1.27;;
22441;SDS011;11388;54.456;9.752;2022-07-29T09:06:00;3.55;;;1.10;;
22441;SDS011;11388;54.456;9.752;2022-07-29T09:08:27;3.63;;;1.25;;
22441;SDS011;11388;54.456;9.752;2022-07-29T09:10:54;5.78;;;1.38;;
22441;SDS011;11388;54.456;9.752;2022-07-29T09:13:21;5.70;;;1.48;;
22441;SDS011;11388;54.456;9.752;2022-07-29T09:15:47;6.65;;;1.40;;
22441;SDS011;11388;54.456;9.752;2022-07-29T09:20:58;3.63;;;1.38;;
22441;SDS011;11388;54.456;9.752;2022-07-29T09:23:59;4.97;;;1.38;;
22441;SDS011;11388;54.456;9.752;2022-07-29T09:26:32;4.57;;;1.35;;
22441;SDS011;11388;54.456;9.752;2022-07-29T09:29:01;5.80;;;1.23;;
22441;SDS011;11388;54.456;9.752;2022-07-29T09:31:39;5.55;;;1.38;;
22441;SDS011;11388;54.456;9.752;2022-07-29T09:34:06;6.05;;;1.30;;
22441;SDS011;11388;54.456;9.752;2022-07-29T09:36:42;8.43;;;1.40;;
22441;SDS011;11388;54.456;9.752;2022-07-29T09:39:12;5.25;;;1.30;;
22441;SDS011;11388;54.456;9.752;2022-07-29T09:41:49;6.05;;;1.40;;
22441;SDS011;11388;54.456;9.752;2022-07-29T09:47:08;4.80;;;1.40;;
22441;SDS011;11388;54.456;9.752;2022-07-29T09:49:34;6.47;;;1.50;;
22441;SDS011;11388;54.456;9.752;2022-07-29T09:52:14;3.75;;;1.40;;
22441;SDS011;11388;54.456;9.752;2022-07-29T09:54:40;4.75;;;1.30;;
22441;SDS011;11388;54.456;9.752;2022-07-29T09:57:07;3.92;;;1.33;;
22441;SDS011;11388;54.456;9.752;2022-07-29T09:59:37;6.75;;;1.13;;
22441;SDS011;11388;54.456;9.752;2022-07-29T10:02:13;6.05;;;1.38;;
22441;SDS011;11388;54.456;9.752;2022-07-29T10:04:41;4.38;;;1.50;;
22441;SDS011;11388;54.456;9.752;2022-07-29T10:07:07;5.18;;;1.50;;
22441;SDS011;11388;54.456;9.752;2022-07-29T10:09:33;4.43;;;1.48;;
22441;SDS011;11388;54.456;9.752;2022-07-29T10:12:10;5.80;;;1.40;;
22441;SDS011;11388;54.456;9.752;2022-07-29T10:14:41;7.22;;;1.58;;
22441;SDS011;11388;54.456;9.752;2022-07-29T10:17:07;7.65;;;1.65;;
22441;SDS011;11388;54.456;9.752;2022-07-29T10:19:34;6.22;;;1.45;;
22441;SDS011;11388;54.456;9.752;2022-07-29T10:22:04;5.65;;;1.95;;
22441;SDS011;11388;54.456;9.752;2022-07-29T10:24:32;5.97;;;1.45;;
22441;SDS011;11388;54.456;9.752;2022-07-29T10:27:00;5.32;;;1.48;;
22441;SDS011;11388;54.456;9.752;2022-07-29T10:38:10;5.43;;;1.30;;
22441;SDS011;11388;54.456;9.752;2022-07-29T10:44:06;8.32;;;1.70;;
22441;SDS011;11388;54.456;9.752;2022-07-29T10:49:28;7.22;;;1.33;;
22441;SDS011;11388;54.456;9.752;2022-07-29T10:52:01;4.95;;;1.38;;
22441;SDS011;11388;54.456;9.752;2022-07-29T10:57:30;6.18;;;1.40;;
22441;SDS011;11388;54.456;9.752;2022-07-29T11:05:11;4.60;;;1.17;;
22441;SDS011;11388;54.456;9.752;2022-07-29T11:07:37;5.47;;;1.30;;
22441;SDS011;11388;54.456;9.752;2022-07-29T11:15:52;5.00;;;1.23;;
22441;SDS011;11388;54.456;9.752;2022-07-29T11:18:15;4.78;;;1.27;;
22441;SDS011;11388;54.456;9.752;2022-07-29T11:20:48;4.55;;;1.30;;
22441;SDS011;11388;54.456;9.752;2022-07-29T11:23:25;3.95;;;1.00;;
22441;SDS011;11388;54.456;9.752;2022-07-29T11:28:51;4.45;;;1.33;;
22441;SDS011;11388;54.456;9.752;2022-07-29T11:34:18;4.07;;;1.10;;
22441;SDS011;11388;54.456;9.752;2022-07-29T11:40:14;5.40;;;1.00;;
22441;SDS011;11388;54.456;9.752;2022-07-29T11:42:42;4.13;;;1.20;;
22441;SDS011;11388;54.456;9.752;2022-07-29T11:50:12;5.32;;;1.45;;
22441;SDS011;11388;54.456;9.752;2022-07-29T11:52:41;6.80;;;1.40;;
22441;SDS011;11388;54.456;9.752;2022-07-29T11:57:47;4.22;;;1.30;;
22441;SDS011;11388;54.456;9.752;2022-07-29T12:02:58;6.15;;;1.23;;
22441;SDS011;11388;54.456;9.752;2022-07-29T12:05:36;4.53;;;1.25;;
22441;SDS011;11388;54.456;9.752;2022-07-29T12:08:07;3.78;;;1.20;;
22441;SDS011;11388;54.456;9.752;2022-07-29T12:10:34;6.97;;;1.30;;
22441;SDS011;11388;54.456;9.752;2022-07-29T12:13:00;4.20;;;1.20;;
22441;SDS011;11388;54.456;9.752;2022-07-29T12:15:25;5.35;;;1.20;;
22441;SDS011;11388;54.456;9.752;2022-07-29T12:21:06;4.97;;;1.20;;
22441;SDS011;11388;54.456;9.752;2022-07-29T12:23:33;3.55;;;1.33;;
22441;SDS011;11388;54.456;9.752;2022-07-29T12:25:59;4.30;;;1.35;;
22441;SDS011;11388;54.456;9.752;2022-07-29T12:28:25;5.63;;;1.60;;
22441;SDS011;11388;54.456;9.752;2022-07-29T12:30:51;4.97;;;1.30;;
22441;SDS011;11388;54.456;9.752;2022-07-29T12:35:44;3.78;;;1.30;;
22441;SDS011;11388;54.456;9.752;2022-07-29T12:38:12;3.40;;;1.25;;
22441;SDS011;11388;54.456;9.752;2022-07-29T12:40:38;3.92;;;1.30;;
22441;SDS011;11388;54.456;9.752;2022-07-29T12:43:12;5.57;;;1.50;;
22441;SDS011;11388;54.456;9.752;2022-07-29T12:45:43;4.57;;;1.35;;
22441;SDS011;11388;54.456;9.752;2022-07-29T12:48:11;4.57;;;1.38;;
22441;SDS011;11388;54.456;9.752;2022-07-29T12:50:51;2.97;;;1.10;;
22441;SDS011;11388;54.456;9.752;2022-07-29T12:53:25;4.43;;;1.25;;
22441;SDS011;11388;54.456;9.752;2022-07-29T12:55:52;4.72;;;1.40;;
22441;SDS011;11388;54.456;9.752;2022-07-29T13:04:26;7.15;;;1.40;;
22441;SDS011;11388;54.456;9.752;2022-07-29T13:13:02;4.03;;;1.10;;
22441;SDS011;11388;54.456;9.752;2022-07-29T13:15:30;4.50;;;1.30;;
22441;SDS011;11388;54.456;9.752;2022-07-29T13:17:56;4.25;;;1.30;;
22441;SDS011;11388;54.456;9.752;2022-07-29T13:20:26;3.55;;;1.48;;
22441;SDS011;11388;54.456;9.752;2022-07-29T13:25:30;5.18;;;1.40;;
22441;SDS011;11388;54.456;9.752;2022-07-29T13:28:03;3.70;;;1.10;;
22441;SDS011;11388;54.456;9.752;2022-07-29T13:30:29;3.08;;;1.17;;
22441;SDS011;11388;54.456;9.752;2022-07-29T13:32:54;5.30;;;1.30;;
22441;SDS011;11388;54.456;9.752;2022-07-29T13:35:20;3.75;;;1.08;;
22441;SDS011;11388;54.456;9.752;2022-07-29T13:37:46;4.03;;;1.13;;
22441;SDS011;11388;54.456;9.752;2022-07-29T13:40:12;3.00;;;0.80;;
22441;SDS011;11388;54.456;9.752;2022-07-29T13:42:38;4.18;;;1.10;;
22441;SDS011;11388;54.456;9.752;2022-07-29T13:45:05;4.15;;;1.10;;
22441;SDS011;11388;54.456;9.752;2022-07-29T13:47:31;5.05;;;1.23;;
22441;SDS011;11388;54.456;9.752;2022-07-29T13:49:57;4.90;;;1.20;;
22441;SDS011;11388;54.456;9.752;2022-07-29T13:55:26;4.03;;;1.20;;
22441;SDS011;11388;54.456;9.752;2022-07-29T13:57:51;2.90;;;0.95;;
22441;SDS011;11388;54.456;9.752;2022-07-29T14:00:17;4.75;;;1.15;;
22441;SDS011;11388;54.456;9.752;2022-07-29T14:02:44;5.82;;;1.40;;
22441;SDS011;11388;54.456;9.752;2022-07-29T14:05:09;3.70;;;1.10;;
22441;SDS011;11388;54.456;9.752;2022-07-29T14:07:36;3.70;;;1.30;;
22441;SDS011;11388;54.456;9.752;2022-07-29T14:10:03;3.80;;;1.20;;
22441;SDS011;11388;54.456;9.752;2022-07-29T14:12:30;3.70;;;1.23;;
22441;SDS011;11388;54.456;9.752;2022-07-29T14:15:01;5.07;;;1.25;;
22441;SDS011;11388;54.456;9.752;2022-07-29T14:17:27;7.30;;;1.40;;
22441;SDS011;11388;54.456;9.752;2022-07-29T14:19:52;7.68;;;1.20;;
22441;SDS011;11388;54.456;9.752;2022-07-29T14:22:18;2.55;;;1.00;;
22441;SDS011;11388;54.456;9.752;2022-07-29T14:24:44;3.05;;;1.20;;
22441;SDS011;11388;54.456;9.752;2022-07-29T15:41:37;6.82;;;1.92;;
22441;SDS011;11388;54.456;9.752;2022-07-29T15:44:22;3.47;;;1.38;;
22441;SDS011;11388;54.456;9.752;2022-07-29T15:46:51;5.13;;;1.25;;
22441;SDS011;11388;54.456;9.752;2022-07-29T15:49:43;4.13;;;1.40;;
22441;SDS011;11388;54.456;9.752;2022-07-29T15:52:37;5.97;;;1.40;;
22441;SDS011;11388;54.456;9.752;2022-07-29T15:55:06;5.63;;;1.30;;
22441;SDS011;11388;54.456;9.752;2022-07-29T15:57:40;4.38;;;1.30;;
22441;SDS011;11388;54.456;9.752;2022-07-29T16:00:08;4.75;;;1.38;;
22441;SDS011;11388;54.456;9.752;2022-07-29T16:03:21;3.50;;;1.15;;
22441;SDS011;11388;54.456;9.752;2022-07-29T16:06:15;4.55;;;1.55;;
22441;SDS011;11388;54.456;9.752;2022-07-29T16:15:30;7.50;;;1.58;;
22441;SDS011;11388;54.456;9.752;2022-07-29T16:18:22;3.40;;;1.45;;
22441;SDS011;11388;54.456;9.752;2022-07-29T16:21:23;4.40;;;1.52;;
22441;SDS011;11388;54.456;9.752;2022-07-29T16:24:18;4.63;;;1.40;;
22441;SDS011;11388;54.456;9.752;2022-07-29T16:26:56;4.35;;;1.20;;
22441;SDS011;11388;54.456;9.752;2022-07-29T16:29:25;4.93;;;1.50;;
22441;SDS011;11388;54.456;9.752;2022-07-29T16:31:56;6.35;;;1.40;;
22441;SDS011;11388;54.456;9.752;2022-07-29T16:34:24;4.13;;;1.40;;
22441;SDS011;11388;54.456;9.752;2022-07-29T16:36:53;4.13;;;1.38;;
22441;SDS011;11388;54.456;9.752;2022-07-29T16:39:29;4.63;;;1.30;;
22441;SDS011;11388;54.456;9.752;2022-07-29T16:41:57;4.60;;;1.38;;
22441;SDS011;11388;54.456;9.752;2022-07-29T16:44:23;3.35;;;1.40;;
22441;SDS011;11388;54.456;9.752;2022-07-29T16:46:49;4.18;;;1.30;;
22441;SDS011;11388;54.456;9.752;2022-07-29T16:49:17;3.10;;;1.30;;
22441;SDS011;11388;54.456;9.752;2022-07-29T16:54:18;2.88;;;1.20;;
22441;SDS011;11388;54.456;9.752;2022-07-29T16:56:44;4.90;;;1.50;;
22441;SDS011;11388;54.456;9.752;2022-07-29T16:59:10;4.53;;;1.38;;
22441;SDS011;11388;54.456;9.752;2022-07-29T17:01:39;2.63;;;0.93;;
22441;SDS011;11388;54.456;9.752;2022-07-29T17:04:05;4.43;;;1.05;;
22441;SDS011;11388;54.456;9.752;2022-07-29T18:43:40;4.43;;;1.30;;
22441;SDS011;11388;54.456;9.752;2022-07-29T18:50:11;3.25;;;1.20;;
22441;SDS011;11388;54.456;9.752;2022-07-29T19:16:42;4.07;;;1.35;;
22441;SDS011;11388;54.456;9.752;2022-07-29T19:19:26;3.33;;;1.42;;
22441;SDS011;11388;54.456;9.752;2022-07-29T19:25:39;4.30;;;1.10;;
22441;SDS011;11388;54.456;9.752;2022-07-29T19:51:10;5.50;;;1.40;;
22441;SDS011;11388;54.456;9.752;2022-07-29T19:53:36;5.75;;;1.42;;
22441;SDS011;11388;54.456;9.752;2022-07-29T19:56:02;4.10;;;1.23;;
22441;SDS011;11388;54.456;9.752;2022-07-29T19:58:28;4.95;;;1.33;;
22441;SDS011;11388;54.456;9.752;2022-07-29T20:00:57;3.00;;;1.20;;
22441;SDS011;11388;54.456;9.752;2022-07-29T20:03:25;4.15;;;1.27;;
22441;SDS011;11388;54.456;9.752;2022-07-29T20:05:51;3.78;;;1.38;;
22441;SDS011;11388;54.456;9.752;2022-07-29T20:08:17;4.82;;;1.40;;
22441;SDS011;11388;54.456;9.752;2022-07-29T20:10:45;4.15;;;1.40;;
22441;SDS011;11388;54.456;9.752;2022-07-29T20:13:11;2.60;;;1.25;;
22441;SDS011;11388;54.456;9.752;2022-07-29T20:15:39;5.10;;;1.50;;
22441;SDS011;11388;54.456;9.752;2022-07-29T20:18:05;3.50;;;1.35;;
22441;SDS011;11388;54.456;9.752;2022-07-29T20:20:31;6.80;;;1.50;;
22441;SDS011;11388;54.456;9.752;2022-07-29T20:23:02;4.20;;;1.40;;
22441;SDS011;11388;54.456;9.752;2022-07-29T20:25:28;3.65;;;1.30;;
22441;SDS011;11388;54.456;9.752;2022-07-29T20:27:57;5.53;;;1.45;;
22441;SDS011;11388;54.456;9.752;2022-07-29T20:30:23;4.38;;;1.70;;
22441;SDS011;11388;54.456;9.752;2022-07-29T20:32:57;5.38;;;1.40;;
22441;SDS011;11388;54.456;9.752;2022-07-29T20:35:34;5.28;;;1.60;;